createdAt,value
2022-10-19T00:01:12.689Z,12.50
2022-10-19T00:03:40.813Z,12.70
2022-10-19T00:06:37.824Z,12.70
2022-10-19T00:09:13.907Z,12.60
2022-10-19T00:11:44.846Z,12.60
2022-10-19T00:14:15.228Z,12.60
2022-10-19T00:16:43.728Z,12.50
2022-10-19T00:19:23.418Z,12.30
2022-10-19T00:24:22.874Z,12.00
2022-10-19T00:26:49.971Z,11.80
2022-10-19T00:29:17.684Z,11.80
2022-10-19T00:31:44.367Z,11.70
2022-10-19T00:34:11.637Z,11.70
2022-10-19T00:36:40.722Z,11.70
2022-10-19T00:39:11.898Z,11.70
2022-10-19T00:41:38.974Z,11.70
2022-10-19T00:44:27.418Z,11.60
2022-10-19T00:46:57.638Z,11.70
2022-10-19T00:49:28.668Z,11.70
2022-10-19T00:52:01.587Z,11.60
2022-10-19T00:54:29.201Z,11.60
2022-10-19T00:56:58.205Z,11.40
2022-10-19T00:59:27.134Z,11.40
2022-10-19T01:01:54.813Z,11.30
2022-10-19T01:04:23.558Z,11.30
2022-10-19T01:09:18.030Z,11.30
2022-10-19T01:11:45.000Z,11.30
2022-10-19T01:14:30.514Z,11.20
2022-10-19T01:17:06.918Z,11.20
2022-10-19T01:19:36.463Z,11.20
2022-10-19T01:22:18.404Z,11.20
2022-10-19T01:25:15.917Z,11.20
2022-10-19T01:28:04.288Z,11.20
2022-10-19T01:30:52.534Z,11.20
2022-10-19T01:33:50.167Z,11.20
2022-10-19T01:36:27.825Z,11.20
2022-10-19T01:39:13.037Z,11.20
2022-10-19T01:41:58.629Z,11.20
2022-10-19T01:44:31.874Z,11.30
2022-10-19T01:47:04.717Z,11.30
2022-10-19T01:49:43.278Z,11.30
2022-10-19T01:52:14.877Z,11.40
2022-10-19T01:54:47.313Z,11.40
2022-10-19T01:57:20.010Z,11.30
2022-10-19T01:59:48.607Z,11.20
2022-10-19T02:02:16.897Z,11.20
2022-10-19T02:04:44.107Z,11.20
2022-10-19T02:07:11.711Z,11.10
2022-10-19T02:09:38.553Z,11.10
2022-10-19T02:12:10.492Z,11.10
2022-10-19T02:14:43.812Z,11.10
2022-10-19T02:17:14.906Z,11.10
2022-10-19T02:19:43.400Z,11.10
2022-10-19T02:22:11.580Z,11.00
2022-10-19T02:24:40.101Z,11.00
2022-10-19T02:27:08.793Z,11.00
2022-10-19T02:29:37.802Z,11.00
2022-10-19T02:32:06.429Z,11.00
2022-10-19T02:34:33.849Z,10.90
2022-10-19T02:37:00.664Z,10.90
2022-10-19T02:39:28.030Z,10.90
2022-10-19T02:42:33.309Z,10.90
2022-10-19T02:45:12.152Z,10.90
2022-10-19T02:47:52.325Z,10.90
2022-10-19T02:50:21.142Z,10.90
2022-10-19T02:52:48.244Z,10.80
2022-10-19T02:55:14.916Z,10.90
2022-10-19T02:57:41.754Z,10.80
2022-10-19T03:00:09.630Z,10.80
2022-10-19T03:02:36.673Z,10.90
2022-10-19T03:05:04.529Z,10.80
2022-10-19T03:07:31.895Z,10.80
2022-10-19T03:09:59.820Z,10.80
2022-10-19T03:12:26.901Z,10.80
2022-10-19T03:14:53.904Z,10.80
2022-10-19T03:17:20.566Z,10.80
2022-10-19T03:19:47.617Z,10.80
2022-10-19T03:22:14.956Z,10.70
2022-10-19T03:24:41.739Z,10.70
2022-10-19T03:27:08.765Z,10.70
2022-10-19T03:29:35.809Z,10.70
2022-10-19T03:32:02.862Z,10.70
2022-10-19T03:34:29.965Z,10.70
2022-10-19T03:36:59.052Z,10.70
2022-10-19T03:39:26.045Z,10.70
2022-10-19T03:41:53.104Z,10.60
2022-10-19T03:44:20.247Z,10.60
2022-10-19T03:46:47.168Z,10.60
2022-10-19T03:49:13.858Z,10.70
2022-10-19T03:51:41.878Z,10.60
2022-10-19T03:54:12.931Z,10.70
2022-10-19T03:56:40.249Z,10.70
2022-10-19T03:59:07.979Z,10.70
2022-10-19T04:01:38.662Z,10.60
2022-10-19T04:04:10.938Z,10.50
2022-10-19T04:06:40.712Z,10.40
2022-10-19T04:09:09.087Z,10.30
2022-10-19T04:11:36.652Z,10.30
2022-10-19T04:14:03.904Z,10.30
2022-10-19T04:16:32.071Z,10.30
2022-10-19T04:18:59.478Z,10.30
2022-10-19T04:21:32.302Z,10.30
2022-10-19T04:24:14.198Z,10.30
2022-10-19T04:26:52.432Z,10.30
2022-10-19T04:29:26.233Z,10.30
2022-10-19T04:31:56.601Z,10.30
2022-10-19T04:34:24.125Z,10.30
2022-10-19T04:36:50.905Z,10.30
2022-10-19T04:39:17.909Z,10.30
2022-10-19T04:41:52.300Z,10.30
2022-10-19T04:44:19.412Z,10.30
2022-10-19T04:46:47.326Z,10.20
2022-10-19T04:49:16.531Z,10.20
2022-10-19T04:51:46.259Z,10.20
2022-10-19T04:54:13.428Z,10.20
2022-10-19T04:56:40.337Z,10.20
2022-10-19T04:59:07.422Z,10.20
2022-10-19T05:01:35.634Z,10.10
2022-10-19T05:04:03.320Z,10.10
2022-10-19T05:06:31.447Z,10.20
2022-10-19T05:08:59.520Z,10.10
2022-10-19T05:11:26.557Z,10.10
2022-10-19T05:13:53.468Z,10.10
2022-10-19T05:16:22.416Z,10.20
2022-10-19T05:18:50.801Z,10.20
2022-10-19T05:21:18.651Z,10.20
2022-10-19T05:23:45.677Z,10.20
2022-10-19T05:26:17.561Z,10.20
2022-10-19T05:29:00.425Z,10.10
2022-10-19T05:31:34.059Z,10.20
2022-10-19T05:34:01.147Z,10.10
2022-10-19T05:36:34.845Z,10.10
2022-10-19T05:39:08.378Z,10.00
2022-10-19T05:41:35.771Z,10.00
2022-10-19T05:44:04.353Z,10.00
2022-10-19T05:46:33.769Z,10.00
2022-10-19T05:49:01.066Z,9.90
2022-10-19T05:51:28.855Z,9.90
2022-10-19T05:53:56.617Z,9.90
2022-10-19T05:56:28.981Z,9.90
2022-10-19T05:58:57.637Z,9.90
2022-10-19T06:01:25.177Z,9.80
2022-10-19T06:03:56.514Z,9.70
2022-10-19T06:06:23.927Z,9.60
2022-10-19T06:08:51.720Z,9.60
2022-10-19T06:11:22.493Z,9.60
2022-10-19T06:13:51.557Z,9.80
2022-10-19T06:16:20.577Z,9.80
2022-10-19T06:18:47.555Z,9.80
2022-10-19T06:21:19.418Z,9.80
2022-10-19T06:23:51.518Z,9.80
2022-10-19T06:26:19.132Z,9.80
2022-10-19T06:28:46.865Z,9.90
2022-10-19T06:31:14.805Z,9.90
2022-10-19T06:33:45.970Z,9.90
2022-10-19T06:36:18.518Z,9.90
2022-10-19T06:38:46.104Z,9.90
2022-10-19T06:41:13.373Z,9.90
2022-10-19T06:43:42.961Z,9.90
2022-10-19T06:46:17.368Z,10.00
2022-10-19T06:48:44.498Z,10.00
2022-10-19T06:51:13.700Z,10.00
2022-10-19T06:53:40.527Z,10.00
2022-10-19T06:56:07.816Z,10.10
2022-10-19T06:58:38.730Z,10.10
2022-10-19T07:01:10.159Z,10.20
2022-10-19T07:03:37.397Z,10.30
2022-10-19T07:06:10.288Z,10.40
2022-10-19T07:08:38.698Z,10.40
2022-10-19T07:11:08.431Z,10.50
2022-10-19T07:13:35.694Z,10.50
2022-10-19T07:16:07.112Z,10.60
2022-10-19T07:18:36.172Z,10.60
2022-10-19T07:21:05.645Z,10.70
2022-10-19T07:23:34.565Z,10.80
2022-10-19T07:26:13.453Z,10.80
2022-10-19T07:28:42.129Z,10.80
2022-10-19T07:31:11.861Z,10.90
2022-10-19T07:33:38.823Z,11.00
2022-10-19T07:36:09.133Z,10.90
2022-10-19T07:38:37.049Z,11.00
2022-10-19T07:41:13.388Z,11.10
2022-10-19T07:43:42.534Z,11.20
2022-10-19T07:46:13.076Z,11.30
2022-10-19T07:48:40.165Z,11.30
2022-10-19T07:51:08.220Z,11.30
2022-10-19T07:53:36.411Z,11.30
2022-10-19T07:56:11.989Z,11.40
2022-10-19T07:58:39.119Z,11.40
2022-10-19T08:01:11.627Z,11.50
2022-10-19T08:06:27.984Z,11.60
2022-10-19T08:08:55.463Z,11.60
2022-10-19T08:11:27.969Z,11.70
2022-10-19T08:13:55.178Z,11.70
2022-10-19T08:16:28.899Z,11.70
2022-10-19T08:19:01.343Z,11.80
2022-10-19T08:21:30.729Z,11.80
2022-10-19T08:23:57.734Z,11.90
2022-10-19T08:26:25.121Z,12.00
2022-10-19T08:28:52.285Z,12.20
2022-10-19T08:31:21.577Z,12.30
2022-10-19T08:33:51.461Z,12.30
2022-10-19T08:36:21.324Z,12.30
2022-10-19T08:38:48.866Z,12.40
2022-10-19T08:41:42.000Z,12.30
2022-10-19T08:44:47.771Z,12.50
2022-10-19T08:47:32.980Z,12.40
2022-10-19T08:50:00.437Z,12.40
2022-10-19T08:52:35.276Z,12.60
2022-10-19T08:55:13.107Z,12.70
2022-10-19T08:57:54.181Z,12.70
2022-10-19T09:06:40.502Z,15.60
2022-10-19T09:09:12.984Z,17.10
2022-10-19T09:11:46.236Z,17.30
2022-10-19T09:14:31.457Z,17.70
2022-10-19T09:17:03.481Z,16.90
2022-10-19T09:19:31.944Z,16.50
2022-10-19T09:22:02.348Z,16.90
2022-10-19T09:24:51.835Z,17.40
2022-10-19T09:27:23.041Z,17.50
2022-10-19T09:30:03.741Z,17.70
2022-10-19T09:32:39.969Z,18.00
2022-10-19T09:35:25.764Z,19.10
2022-10-19T09:37:53.608Z,18.90
2022-10-19T09:40:30.858Z,18.50
2022-10-19T09:42:58.967Z,18.80
2022-10-19T09:45:56.889Z,18.90
2022-10-19T09:48:48.718Z,18.50
2022-10-19T09:51:16.799Z,19.00
2022-10-19T09:53:49.992Z,19.60
2022-10-19T09:56:38.109Z,19.90
2022-10-19T09:59:19.900Z,19.40
2022-10-19T10:01:46.976Z,19.20
2022-10-19T10:04:18.514Z,18.40
2022-10-19T10:06:48.288Z,18.60
2022-10-19T10:09:26.259Z,18.20
2022-10-19T10:11:57.004Z,18.50
2022-10-19T10:14:30.318Z,18.80
2022-10-19T10:17:21.918Z,19.10
2022-10-19T10:19:57.955Z,19.60
2022-10-19T10:22:34.972Z,19.80
2022-10-19T10:25:11.096Z,20.10
2022-10-19T10:27:39.499Z,20.60
2022-10-19T10:30:15.038Z,20.50
2022-10-19T10:32:49.189Z,21.30
2022-10-19T10:35:24.997Z,20.90
2022-10-19T10:37:52.701Z,20.70
2022-10-19T10:40:29.774Z,20.10
2022-10-19T10:43:02.475Z,19.90
2022-10-19T10:45:33.284Z,20.50
2022-10-19T10:48:26.146Z,19.90
2022-10-19T10:50:53.193Z,20.40
2022-10-19T10:53:46.374Z,21.40
2022-10-19T10:56:40.990Z,20.10
2022-10-19T10:59:22.047Z,20.30
2022-10-19T11:04:59.628Z,20.60
2022-10-19T11:07:32.075Z,20.00
2022-10-19T11:10:06.793Z,19.40
2022-10-19T11:12:43.497Z,19.50
2022-10-19T11:18:16.319Z,19.40
2022-10-19T11:21:01.929Z,20.40
2022-10-19T11:23:48.221Z,20.40
2022-10-19T11:26:35.157Z,20.60
2022-10-19T11:29:51.507Z,20.30
2022-10-19T11:32:31.142Z,19.50
2022-10-19T11:35:23.068Z,19.50
2022-10-19T11:38:18.143Z,19.00
2022-10-19T11:41:13.290Z,18.80
2022-10-19T11:43:42.708Z,18.30
2022-10-19T11:46:17.442Z,18.30
2022-10-19T11:48:54.963Z,18.50
2022-10-19T11:51:53.462Z,18.70
2022-10-19T11:54:46.036Z,19.10
2022-10-19T11:57:23.814Z,19.70
2022-10-19T12:00:38.083Z,20.80
2022-10-19T12:03:27.681Z,21.40
2022-10-19T12:06:15.843Z,21.20
2022-10-19T12:09:08.157Z,21.50
2022-10-19T12:11:49.246Z,21.80
2022-10-19T12:14:24.332Z,22.40
2022-10-19T12:16:56.243Z,23.30
2022-10-19T12:19:27.435Z,22.80
2022-10-19T12:21:59.949Z,21.70
2022-10-19T12:24:29.558Z,21.40
2022-10-19T12:26:57.024Z,22.20
2022-10-19T12:29:27.921Z,22.50
2022-10-19T12:31:56.512Z,23.30
2022-10-19T12:34:56.379Z,23.30
2022-10-19T12:37:55.053Z,23.30
2022-10-19T12:40:43.258Z,22.70
2022-10-19T12:43:19.600Z,22.50
2022-10-19T12:46:32.753Z,22.10
2022-10-19T12:49:29.301Z,22.40
2022-10-19T12:51:58.357Z,21.80
2022-10-19T12:54:33.869Z,21.30
2022-10-19T12:57:02.138Z,21.40
2022-10-19T12:59:33.316Z,21.20
2022-10-19T13:02:02.222Z,21.20
2022-10-19T13:04:31.973Z,21.40
2022-10-19T13:07:03.761Z,22.00
2022-10-19T13:09:42.098Z,22.00
2022-10-19T13:12:17.820Z,22.40
2022-10-19T13:15:04.328Z,21.70
2022-10-19T13:17:35.023Z,21.30
2022-10-19T13:20:14.570Z,21.90
2022-10-19T13:22:50.245Z,22.20
2022-10-19T13:25:17.230Z,21.50
2022-10-19T13:27:48.424Z,21.70
2022-10-19T13:30:41.822Z,21.80
2022-10-19T13:33:29.801Z,21.70
2022-10-19T13:35:59.400Z,20.90
2022-10-19T13:38:31.921Z,20.30
2022-10-19T13:41:01.870Z,20.50
2022-10-19T13:43:52.155Z,21.00
2022-10-19T13:46:26.342Z,20.70
2022-10-19T13:49:02.475Z,20.10
2022-10-19T13:51:47.858Z,20.10
2022-10-19T13:54:33.566Z,20.10
2022-10-19T13:57:03.080Z,19.50
2022-10-19T13:59:47.942Z,19.20
2022-10-19T14:02:42.449Z,19.00
2022-10-19T14:05:31.437Z,19.20
2022-10-19T14:08:07.395Z,19.00
2022-10-19T14:10:56.139Z,18.90
2022-10-19T14:13:22.406Z,18.90
2022-10-19T14:15:56.064Z,18.90
2022-10-19T14:18:36.321Z,18.80
2022-10-19T14:21:07.566Z,18.70
2022-10-19T14:23:36.987Z,18.40
2022-10-19T14:26:05.755Z,18.30
2022-10-19T14:28:33.435Z,18.30
2022-10-19T14:31:11.410Z,18.30
2022-10-19T14:33:49.823Z,18.10
2022-10-19T14:36:19.485Z,18.00
2022-10-19T14:38:48.789Z,17.90
2022-10-19T14:41:28.892Z,17.90
2022-10-19T14:44:00.563Z,17.90
2022-10-19T14:46:31.326Z,17.80
2022-10-19T14:49:03.893Z,17.80
2022-10-19T14:51:44.807Z,17.80
2022-10-19T14:54:15.726Z,17.90
2022-10-19T14:57:01.102Z,17.90
2022-10-19T14:59:47.955Z,17.80
2022-10-19T15:02:38.580Z,17.60
2022-10-19T15:05:20.928Z,17.50
2022-10-19T15:08:08.477Z,17.50
2022-10-19T15:10:47.829Z,17.50
2022-10-19T15:13:40.136Z,17.50
2022-10-19T15:16:28.328Z,17.40
2022-10-19T15:19:02.509Z,17.40
2022-10-19T15:22:27.901Z,17.30
2022-10-19T15:25:14.591Z,17.30
2022-10-19T15:27:47.500Z,17.30
2022-10-19T15:30:23.201Z,17.30
2022-10-19T15:33:02.311Z,17.20
2022-10-19T15:35:33.614Z,17.20
2022-10-19T15:38:28.146Z,17.10
2022-10-19T15:41:05.000Z,17.10
2022-10-19T15:43:48.885Z,17.10
2022-10-19T15:46:31.074Z,16.90
2022-10-19T15:49:15.468Z,16.50
2022-10-19T15:51:50.555Z,16.90
2022-10-19T15:54:20.517Z,16.80
2022-10-19T15:56:51.987Z,16.70
2022-10-19T15:59:21.642Z,16.60
2022-10-19T16:01:53.698Z,16.50
2022-10-19T16:04:23.812Z,16.50
2022-10-19T16:06:51.848Z,16.50
2022-10-19T16:09:24.482Z,16.40
2022-10-19T16:11:56.924Z,16.30
2022-10-19T16:14:26.608Z,16.20
2022-10-19T16:16:59.368Z,16.10
2022-10-19T16:19:28.228Z,16.10
2022-10-19T16:21:56.935Z,16.00
2022-10-19T16:24:31.142Z,15.90
2022-10-19T16:26:57.969Z,15.90
2022-10-19T16:29:28.917Z,15.80
2022-10-19T16:32:05.317Z,15.80
2022-10-19T16:34:36.328Z,15.70
2022-10-19T16:37:08.961Z,15.60
2022-10-19T16:39:37.081Z,15.60
2022-10-19T16:42:04.900Z,15.50
2022-10-19T16:44:33.128Z,15.40
2022-10-19T16:47:00.978Z,15.40
2022-10-19T16:49:28.991Z,15.30
2022-10-19T16:51:57.472Z,15.20
2022-10-19T16:54:26.724Z,15.20
2022-10-19T16:56:56.574Z,15.10
2022-10-19T16:59:25.484Z,15.10
2022-10-19T17:01:52.426Z,15.00
2022-10-19T17:04:20.188Z,15.00
2022-10-19T17:06:52.701Z,14.90
2022-10-19T17:09:41.807Z,14.90
2022-10-19T17:12:09.261Z,14.90
2022-10-19T17:14:42.593Z,14.80
2022-10-19T17:17:11.266Z,14.80
2022-10-19T17:19:39.420Z,14.70
2022-10-19T17:22:20.703Z,14.70
2022-10-19T17:24:57.993Z,14.60
2022-10-19T17:27:41.018Z,14.50
2022-10-19T17:30:39.174Z,14.60
2022-10-19T17:33:07.030Z,14.60
2022-10-19T17:35:35.737Z,14.60
2022-10-19T17:38:04.420Z,14.50
2022-10-19T17:40:33.453Z,14.50
2022-10-19T17:43:06.012Z,14.50
2022-10-19T17:45:35.002Z,14.50
2022-10-19T17:48:03.045Z,14.40
2022-10-19T17:50:35.583Z,14.40
2022-10-19T17:53:02.555Z,14.30
2022-10-19T17:55:31.719Z,14.30
2022-10-19T17:58:08.705Z,14.30
2022-10-19T18:00:35.313Z,14.30
2022-10-19T18:03:02.113Z,14.20
2022-10-19T18:05:30.264Z,14.30
2022-10-19T18:07:59.283Z,14.20
2022-10-19T18:10:29.250Z,14.20
2022-10-19T18:12:59.079Z,14.10
2022-10-19T18:15:27.051Z,14.10
2022-10-19T18:17:54.868Z,14.10
2022-10-19T18:20:23.537Z,14.10
2022-10-19T18:22:52.268Z,14.00
2022-10-19T18:25:55.454Z,14.00
2022-10-19T18:28:55.219Z,13.90
2022-10-19T18:31:38.721Z,13.90
2022-10-19T18:34:15.126Z,13.80
2022-10-19T18:36:43.428Z,13.80
2022-10-19T18:39:12.133Z,13.80
2022-10-19T18:41:55.521Z,13.80
2022-10-19T18:44:32.511Z,13.80
2022-10-19T18:47:15.826Z,13.70
2022-10-19T18:49:42.785Z,13.70
2022-10-19T18:52:22.150Z,13.60
2022-10-19T18:54:49.236Z,13.60
2022-10-19T18:57:19.099Z,13.60
2022-10-19T19:00:23.061Z,13.60
2022-10-19T19:02:59.957Z,13.60
2022-10-19T19:05:33.601Z,13.60
2022-10-19T19:08:21.916Z,13.60
2022-10-19T19:10:51.745Z,13.50
2022-10-19T19:13:26.885Z,13.60
2022-10-19T19:16:02.700Z,13.50
2022-10-19T19:18:37.492Z,13.50
2022-10-19T19:21:12.740Z,13.40
2022-10-19T19:23:39.937Z,13.40
2022-10-19T19:26:07.724Z,13.40
2022-10-19T19:28:37.806Z,13.40
2022-10-19T19:31:07.948Z,13.40
2022-10-19T19:33:40.333Z,13.40
2022-10-19T19:36:09.705Z,13.40
2022-10-19T19:38:37.670Z,13.40
2022-10-19T19:41:13.448Z,13.40
2022-10-19T19:43:59.516Z,13.40
2022-10-19T19:46:56.584Z,13.40
2022-10-19T19:49:24.914Z,13.30
2022-10-19T19:51:57.589Z,13.30
2022-10-19T19:54:27.467Z,13.30
2022-10-19T19:57:01.662Z,13.30
2022-10-19T19:59:31.850Z,13.40
2022-10-19T20:01:58.868Z,13.30
2022-10-19T20:04:26.877Z,13.30
2022-10-19T20:06:53.523Z,13.20
2022-10-19T20:12:02.885Z,13.20
2022-10-19T20:15:17.595Z,13.20
2022-10-19T20:18:28.497Z,13.30
2022-10-19T20:23:46.682Z,13.30
2022-10-19T20:26:24.055Z,13.30
2022-10-19T20:28:54.030Z,13.30
2022-10-19T20:32:04.791Z,13.30
2022-10-19T20:34:35.954Z,13.30
2022-10-19T20:37:09.991Z,13.20
2022-10-19T20:39:38.656Z,13.20
2022-10-19T20:42:08.557Z,13.20
2022-10-19T20:47:13.879Z,13.20
2022-10-19T20:49:40.876Z,13.20
2022-10-19T20:52:07.851Z,13.10
2022-10-19T20:54:41.973Z,13.10
2022-10-19T20:57:08.897Z,13.10
2022-10-19T21:07:36.766Z,13.10
2022-10-19T21:10:03.935Z,12.80
2022-10-19T21:12:33.373Z,13.00
2022-10-19T21:15:00.446Z,13.10
2022-10-19T21:17:32.520Z,13.00
2022-10-19T21:20:05.607Z,13.00
2022-10-19T21:25:46.834Z,13.00
2022-10-19T21:36:14.553Z,13.00
2022-10-19T21:42:22.540Z,12.90
2022-10-19T21:45:30.199Z,12.90
2022-10-19T21:48:00.873Z,12.90
2022-10-19T21:50:34.876Z,13.00
2022-10-19T21:59:22.493Z,13.00
2022-10-19T22:01:55.053Z,15.00
2022-10-19T22:09:41.516Z,13.10
2022-10-19T22:17:38.693Z,13.20
2022-10-19T22:20:37.888Z,13.20
2022-10-19T22:23:06.334Z,13.20
2022-10-19T22:25:34.872Z,13.30
2022-10-19T22:28:02.969Z,13.40
2022-10-19T22:30:29.875Z,13.50
2022-10-19T22:32:58.912Z,13.50
2022-10-19T22:35:25.605Z,13.50
2022-10-19T22:37:52.396Z,13.60
2022-10-19T22:40:33.173Z,13.70
2022-10-19T22:46:09.594Z,13.60
2022-10-19T22:48:45.561Z,13.60
2022-10-19T22:54:13.083Z,13.50
2022-10-19T22:56:48.063Z,13.60
2022-10-19T22:59:30.388Z,13.50
2022-10-19T23:02:01.032Z,13.50
2022-10-19T23:08:28.668Z,13.50
2022-10-19T23:10:58.924Z,13.50
2022-10-19T23:13:26.283Z,13.40
2022-10-19T23:15:56.389Z,13.40
2022-10-19T23:18:25.540Z,13.40
2022-10-19T23:21:06.812Z,13.30
2022-10-19T23:23:37.030Z,13.40
2022-10-19T23:26:10.466Z,13.40
2022-10-19T23:28:47.376Z,13.40
2022-10-19T23:31:33.661Z,13.30
2022-10-19T23:34:16.080Z,13.30
2022-10-19T23:36:45.893Z,13.20
2022-10-19T23:39:14.623Z,13.20
2022-10-19T23:41:44.498Z,13.10
2022-10-19T23:44:17.258Z,13.10
2022-10-19T23:49:25.496Z,13.20
2022-10-19T23:51:56.427Z,13.20
2022-10-19T23:54:26.418Z,13.10
2022-10-19T23:56:56.274Z,13.00
2022-10-19T23:59:23.383Z,13.00
